createdAt,value
2022-08-09T00:00:00.408Z,54.20
2022-08-09T00:02:28.427Z,54.24
2022-08-09T00:05:03.280Z,54.03
2022-08-09T00:07:44.577Z,54.28
2022-08-09T00:10:17.835Z,54.21
2022-08-09T00:12:47.475Z,54.31
2022-08-09T00:15:19.374Z,54.18
2022-08-09T00:18:06.020Z,54.41
2022-08-09T00:20:32.212Z,54.57
2022-08-09T00:23:09.924Z,54.35
2022-08-09T00:25:46.899Z,54.21
2022-08-09T00:28:19.196Z,54.16
2022-08-09T00:30:51.897Z,54.39
2022-08-09T00:33:18.400Z,54.46
2022-08-09T00:35:44.986Z,54.13
2022-08-09T00:38:12.750Z,54.59
2022-08-09T00:40:53.007Z,54.47
2022-08-09T00:44:13.074Z,54.64
2022-08-09T00:46:10.885Z,54.33
2022-08-09T00:48:41.136Z,54.27
2022-08-09T00:51:16.589Z,54.48
2022-08-09T00:53:46.520Z,54.44
2022-08-09T00:56:14.412Z,54.34
2022-08-09T00:58:40.959Z,54.22
2022-08-09T01:01:15.829Z,54.32
2022-08-09T01:04:06.728Z,54.45
2022-08-09T01:06:54.628Z,54.35
2022-08-09T01:09:37.223Z,54.21
2022-08-09T01:12:21.568Z,54.06
2022-08-09T01:15:17.807Z,54.13
2022-08-09T01:17:56.701Z,54.37
2022-08-09T01:20:59.448Z,54.48
2022-08-09T01:24:02.838Z,54.35
2022-08-09T01:26:53.586Z,54.18
2022-08-09T01:29:29.415Z,54.34
2022-08-09T01:32:43.907Z,54.27
2022-08-09T01:35:18.044Z,54.31
2022-08-09T01:38:07.788Z,54.16
2022-08-09T01:40:43.023Z,54.13
2022-08-09T01:43:11.218Z,54.34
2022-08-09T01:45:44.679Z,54.32
2022-08-09T01:48:16.271Z,54.30
2022-08-09T01:50:48.099Z,54.38
2022-08-09T01:53:19.529Z,54.17
2022-08-09T01:55:47.993Z,54.07
2022-08-09T01:58:16.642Z,54.11
2022-08-09T02:00:50.524Z,54.19
2022-08-09T02:03:19.424Z,54.33
2022-08-09T02:06:03.259Z,54.13
2022-08-09T02:08:58.045Z,54.48
2022-08-09T02:11:24.572Z,54.08
2022-08-09T02:14:10.158Z,54.29
2022-08-09T02:16:53.341Z,54.37
2022-08-09T02:19:38.848Z,54.31
2022-08-09T02:22:16.550Z,54.25
2022-08-09T02:24:51.806Z,54.42
2022-08-09T02:27:20.138Z,54.05
2022-08-09T02:30:08.560Z,54.09
2022-08-09T02:32:41.224Z,54.29
2022-08-09T02:35:17.659Z,54.32
2022-08-09T02:37:47.424Z,54.28
2022-08-09T02:40:24.805Z,54.03
2022-08-09T02:42:55.598Z,54.15
2022-08-09T02:45:31.171Z,54.30
2022-08-09T02:48:05.484Z,54.26
2022-08-09T02:50:45.257Z,54.29
2022-08-09T02:53:26.661Z,54.09
2022-08-09T02:55:58.265Z,54.25
2022-08-09T02:58:36.063Z,53.95
2022-08-09T03:01:08.060Z,53.90
2022-08-09T03:04:18.425Z,54.09
2022-08-09T03:06:27.280Z,54.29
2022-08-09T03:08:55.298Z,54.07
2022-08-09T03:12:03.972Z,54.17
2022-08-09T03:14:11.819Z,53.99
2022-08-09T03:16:42.034Z,54.33
2022-08-09T03:19:58.680Z,54.24
2022-08-09T03:22:04.182Z,53.84
2022-08-09T03:24:31.693Z,54.10
2022-08-09T03:27:10.781Z,54.06
2022-08-09T03:29:43.208Z,53.91
2022-08-09T03:32:26.146Z,54.04
2022-08-09T03:34:54.047Z,53.80
2022-08-09T03:37:55.472Z,53.75
2022-08-09T03:40:08.276Z,53.86
2022-08-09T03:42:39.725Z,53.77
2022-08-09T03:45:10.433Z,54.03
2022-08-09T03:47:42.011Z,54.03
2022-08-09T03:50:14.423Z,53.76
2022-08-09T03:52:56.043Z,53.71
2022-08-09T03:55:24.565Z,53.61
2022-08-09T03:58:03.267Z,53.77
2022-08-09T04:00:38.606Z,53.77
2022-08-09T04:03:06.911Z,53.94
2022-08-09T04:05:33.349Z,54.00
2022-08-09T04:08:07.005Z,53.49
2022-08-09T04:10:35.267Z,53.56
2022-08-09T04:13:09.374Z,53.87
2022-08-09T04:16:20.193Z,53.54
2022-08-09T04:18:25.503Z,53.63
2022-08-09T04:20:52.019Z,53.81
2022-08-09T04:23:24.298Z,53.51
2022-08-09T04:25:53.067Z,53.61
2022-08-09T04:28:34.164Z,53.65
2022-08-09T04:31:05.762Z,53.66
2022-08-09T04:33:47.656Z,53.74
2022-08-09T04:36:23.450Z,53.47
2022-08-09T04:38:50.911Z,53.57
2022-08-09T04:41:18.576Z,53.45
2022-08-09T04:43:53.846Z,53.48
2022-08-09T04:46:38.090Z,53.52
2022-08-09T04:49:30.137Z,53.89
2022-08-09T04:52:05.674Z,53.54
2022-08-09T04:54:34.029Z,53.48
2022-08-09T04:57:00.469Z,53.86
2022-08-09T04:59:30.695Z,53.58
2022-08-09T05:01:57.206Z,53.50
2022-08-09T05:04:23.870Z,53.56
2022-08-09T05:06:57.287Z,53.54
2022-08-09T05:09:24.418Z,53.66
2022-08-09T05:11:51.584Z,53.59
2022-08-09T05:14:18.361Z,53.77
2022-08-09T05:16:59.339Z,53.58
2022-08-09T05:19:44.546Z,53.65
2022-08-09T05:22:35.998Z,53.72
2022-08-09T05:25:00.939Z,53.82
2022-08-09T05:27:28.772Z,53.79
2022-08-09T05:29:57.501Z,53.76
2022-08-09T05:32:25.450Z,53.62
2022-08-09T05:34:51.832Z,53.77
2022-08-09T05:37:18.659Z,54.02
2022-08-09T05:39:45.063Z,53.89
2022-08-09T05:42:17.854Z,53.69
2022-08-09T05:44:53.508Z,53.68
2022-08-09T05:47:25.094Z,53.64
2022-08-09T05:50:29.862Z,53.72
2022-08-09T05:52:43.585Z,53.63
2022-08-09T05:55:21.125Z,53.93
2022-08-09T05:57:57.020Z,53.79
2022-08-09T06:00:33.504Z,54.04
2022-08-09T06:03:01.726Z,53.71
2022-08-09T06:05:31.186Z,54.03
2022-08-09T06:08:18.995Z,54.14
2022-08-09T06:10:46.375Z,54.01
2022-08-09T06:13:18.948Z,54.04
2022-08-09T06:15:47.643Z,54.13
2022-08-09T06:18:18.433Z,54.15
2022-08-09T06:20:54.259Z,54.22
2022-08-09T06:23:23.798Z,53.88
2022-08-09T06:26:10.366Z,54.07
2022-08-09T06:28:37.363Z,53.95
2022-08-09T06:31:03.824Z,54.03
2022-08-09T06:33:40.662Z,54.02
2022-08-09T06:36:08.710Z,54.38
2022-08-09T06:38:37.365Z,54.28
2022-08-09T06:41:04.618Z,54.52
2022-08-09T06:43:40.088Z,54.90
2022-08-09T06:46:10.946Z,55.38
2022-08-09T06:48:37.519Z,55.37
2022-08-09T06:51:10.357Z,55.62
2022-08-09T06:53:38.467Z,55.85
2022-08-09T06:56:09.044Z,55.65
2022-08-09T07:00:46.446Z,56.19
2022-08-09T07:01:24.044Z,56.31
2022-08-09T07:03:53.098Z,56.58
2022-08-09T07:06:23.042Z,56.70
2022-08-09T07:08:54.430Z,56.91
2022-08-09T07:11:23.781Z,56.69
2022-08-09T07:14:05.991Z,57.11
2022-08-09T07:16:42.563Z,57.17
2022-08-09T07:19:22.812Z,57.30
2022-08-09T07:21:55.827Z,57.44
2022-08-09T07:24:32.374Z,57.18
2022-08-09T07:27:23.934Z,57.19
2022-08-09T07:29:56.902Z,57.30
2022-08-09T07:32:32.165Z,57.30
2022-08-09T07:35:00.583Z,57.12
2022-08-09T07:37:29.432Z,57.12
2022-08-09T07:39:56.088Z,56.83
2022-08-09T07:42:32.912Z,56.83
2022-08-09T07:45:02.597Z,57.00
2022-08-09T07:48:00.611Z,56.85
2022-08-09T07:50:35.099Z,57.01
2022-08-09T07:53:04.759Z,56.91
2022-08-09T07:55:40.976Z,57.22
2022-08-09T07:58:17.451Z,57.15
2022-08-09T08:00:59.195Z,56.79
2022-08-09T08:03:31.111Z,57.07
2022-08-09T08:05:58.521Z,56.85
2022-08-09T08:09:01.959Z,56.61
2022-08-09T08:12:10.349Z,57.31
2022-08-09T08:13:59.505Z,57.03
2022-08-09T08:16:29.731Z,56.78
2022-08-09T08:19:03.301Z,56.88
2022-08-09T08:21:31.227Z,57.22
2022-08-09T08:23:57.612Z,57.07
2022-08-09T08:26:42.173Z,56.57
2022-08-09T08:29:14.995Z,56.35
2022-08-09T08:32:03.455Z,56.67
2022-08-09T08:34:34.732Z,56.79
2022-08-09T08:37:03.294Z,56.73
2022-08-09T08:39:32.958Z,57.16
2022-08-09T08:42:07.065Z,56.93
2022-08-09T08:44:37.514Z,57.21
2022-08-09T08:47:13.189Z,56.95
2022-08-09T08:49:48.549Z,57.21
2022-08-09T08:52:52.902Z,57.17
2022-08-09T08:55:07.991Z,57.01
2022-08-09T08:57:35.869Z,57.19
2022-08-09T09:00:12.683Z,56.63
2022-08-09T09:02:52.222Z,56.64
2022-08-09T09:05:57.345Z,56.13
2022-08-09T09:08:30.179Z,56.33
2022-08-09T09:10:57.874Z,56.32
2022-08-09T09:13:24.295Z,55.91
2022-08-09T09:16:09.319Z,55.18
2022-08-09T09:18:36.140Z,55.10
2022-08-09T09:21:02.557Z,55.15
2022-08-09T09:23:50.031Z,54.88
2022-08-09T09:26:25.970Z,55.41
2022-08-09T09:29:03.701Z,55.76
2022-08-09T09:32:06.445Z,55.39
2022-08-09T09:34:23.422Z,55.95
2022-08-09T09:36:53.225Z,56.01
2022-08-09T09:39:50.521Z,55.64
2022-08-09T09:42:26.325Z,55.58
2022-08-09T09:45:00.669Z,55.66
2022-08-09T09:47:30.074Z,55.95
2022-08-09T09:50:14.712Z,56.01
2022-08-09T09:52:55.877Z,55.68
2022-08-09T09:55:32.089Z,56.06
2022-08-09T09:58:17.947Z,55.90
2022-08-09T10:00:53.985Z,55.70
2022-08-09T10:03:40.015Z,55.43
2022-08-09T10:06:06.735Z,55.47
2022-08-09T10:08:54.162Z,55.85
2022-08-09T10:12:00.307Z,55.49
2022-08-09T10:14:27.749Z,55.84
2022-08-09T10:17:11.551Z,55.51
2022-08-09T10:19:45.871Z,55.73
2022-08-09T10:22:12.636Z,55.59
2022-08-09T10:24:40.978Z,55.66
2022-08-09T10:27:10.232Z,54.81
2022-08-09T10:30:27.150Z,55.03
2022-08-09T10:32:42.257Z,54.76
2022-08-09T10:35:10.464Z,54.61
2022-08-09T10:37:40.420Z,54.40
2022-08-09T10:40:11.910Z,54.00
2022-08-09T10:42:55.943Z,54.64
2022-08-09T10:45:23.584Z,54.44
2022-08-09T10:48:19.579Z,54.40
2022-08-09T10:51:09.622Z,54.16
2022-08-09T10:53:54.492Z,54.35
2022-08-09T10:56:38.780Z,54.26
2022-08-09T10:59:55.482Z,54.10
2022-08-09T11:03:13.276Z,54.39
2022-08-09T11:05:30.130Z,53.94
2022-08-09T11:08:17.262Z,54.10
2022-08-09T11:10:47.055Z,54.46
2022-08-09T11:13:49.170Z,54.43
2022-08-09T11:16:35.327Z,54.65
2022-08-09T11:19:07.835Z,54.53
2022-08-09T11:22:05.328Z,54.61
2022-08-09T11:25:12.262Z,54.59
2022-08-09T11:28:05.224Z,54.79
2022-08-09T11:30:35.886Z,54.17
2022-08-09T11:33:18.059Z,54.38
2022-08-09T11:35:49.502Z,54.32
2022-08-09T11:38:28.836Z,54.23
2022-08-09T11:41:38.434Z,54.02
2022-08-09T11:44:07.654Z,54.42
2022-08-09T11:46:54.971Z,54.13
2022-08-09T11:50:52.464Z,54.02
2022-08-09T11:53:15.750Z,54.51
2022-08-09T11:55:53.723Z,54.33
2022-08-09T11:58:33.176Z,54.20
2022-08-09T12:01:15.662Z,54.46
2022-08-09T12:04:00.745Z,54.74
2022-08-09T12:06:32.109Z,54.78
2022-08-09T12:09:01.203Z,54.61
2022-08-09T12:11:28.428Z,54.81
2022-08-09T12:14:08.565Z,54.56
2022-08-09T12:16:41.544Z,54.63
2022-08-09T12:19:12.002Z,54.61
2022-08-09T12:21:50.325Z,54.85
2022-08-09T12:24:25.032Z,54.97
2022-08-09T12:29:15.615Z,55.08
2022-08-09T12:29:58.588Z,54.97
2022-08-09T12:32:28.216Z,54.80
2022-08-09T12:35:02.698Z,54.78
2022-08-09T12:37:49.681Z,54.96
2022-08-09T12:40:21.124Z,55.02
2022-08-09T12:42:50.608Z,55.07
2022-08-09T12:45:33.764Z,55.21
2022-08-09T12:48:04.949Z,54.71
2022-08-09T12:50:32.270Z,55.24
2022-08-09T12:53:17.633Z,55.05
2022-08-09T12:56:12.693Z,54.78
2022-08-09T12:58:32.726Z,54.62
2022-08-09T13:01:04.418Z,54.61
2022-08-09T13:03:56.797Z,54.80
2022-08-09T13:06:34.592Z,54.87
2022-08-09T13:09:06.585Z,54.87
2022-08-09T13:11:39.125Z,55.08
2022-08-09T13:14:41.636Z,54.98
2022-08-09T13:17:04.105Z,55.30
2022-08-09T13:20:07.632Z,55.09
2022-08-09T13:22:38.239Z,55.31
2022-08-09T13:25:12.199Z,55.42
2022-08-09T13:27:48.897Z,55.24
2022-08-09T13:30:49.135Z,55.49
2022-08-09T13:33:23.659Z,55.61
2022-08-09T13:36:24.355Z,55.67
2022-08-09T13:38:57.336Z,55.71
2022-08-09T13:41:51.858Z,56.04
2022-08-09T13:44:13.657Z,55.78
2022-08-09T13:47:26.714Z,56.20
2022-08-09T13:49:37.530Z,56.00
2022-08-09T13:52:08.896Z,55.43
2022-08-09T13:54:36.023Z,55.21
2022-08-09T13:57:08.297Z,55.48
2022-08-09T13:59:41.824Z,55.72
2022-08-09T14:02:08.700Z,55.05
2022-08-09T14:04:36.577Z,55.16
2022-08-09T14:07:03.845Z,54.56
2022-08-09T14:09:34.813Z,54.27
2022-08-09T14:12:07.089Z,53.81
2022-08-09T14:14:44.025Z,53.85
2022-08-09T14:17:12.926Z,52.99
2022-08-09T14:19:39.362Z,52.90
2022-08-09T14:22:07.083Z,53.43
2022-08-09T14:24:35.483Z,53.39
2022-08-09T14:27:02.232Z,53.31
2022-08-09T14:30:35.929Z,53.34
2022-08-09T14:32:16.438Z,52.74
2022-08-09T14:34:46.680Z,52.67
2022-08-09T14:37:22.455Z,52.56
2022-08-09T14:39:55.293Z,52.70
2022-08-09T14:42:31.029Z,52.79
2022-08-09T14:46:51.238Z,53.34
2022-08-09T14:47:59.176Z,55.59
2022-08-09T14:50:31.422Z,54.30
2022-08-09T14:52:59.418Z,54.79
2022-08-09T14:55:29.250Z,55.28
2022-08-09T14:57:59.599Z,55.63
2022-08-09T15:00:27.053Z,56.20
2022-08-09T15:02:58.344Z,55.84
2022-08-09T15:05:26.514Z,56.10
2022-08-09T15:07:55.995Z,56.21
2022-08-09T15:10:26.866Z,56.81
2022-08-09T15:12:55.205Z,56.73
2022-08-09T15:15:22.179Z,57.12
2022-08-09T15:17:52.270Z,57.02
2022-08-09T15:22:01.825Z,58.09
2022-08-09T15:24:03.765Z,57.85
2022-08-09T15:25:53.532Z,57.63
2022-08-09T15:28:27.437Z,57.43
2022-08-09T15:31:08.636Z,57.20
2022-08-09T15:34:18.426Z,57.32
2022-08-09T15:36:28.471Z,56.88
2022-08-09T15:38:56.470Z,56.85
2022-08-09T15:41:23.077Z,57.09
2022-08-09T15:43:58.252Z,56.78
2022-08-09T15:46:32.611Z,56.70
2022-08-09T15:49:21.349Z,56.57
2022-08-09T15:52:02.785Z,56.63
2022-08-09T15:54:46.241Z,56.17
2022-08-09T15:57:18.912Z,56.14
2022-08-09T16:00:01.154Z,56.10
2022-08-09T16:02:27.558Z,56.66
2022-08-09T16:04:54.004Z,56.49
2022-08-09T16:07:20.408Z,56.44
2022-08-09T16:09:51.291Z,56.26
2022-08-09T16:12:30.778Z,56.58
2022-08-09T16:14:57.488Z,56.18
2022-08-09T16:17:23.880Z,56.30
2022-08-09T16:20:05.061Z,56.85
2022-08-09T16:22:42.247Z,56.83
2022-08-09T16:25:15.751Z,56.70
2022-08-09T16:27:42.292Z,56.59
2022-08-09T16:30:15.405Z,56.55
2022-08-09T16:33:09.981Z,56.54
2022-08-09T16:35:56.507Z,56.24
2022-08-09T16:38:24.243Z,55.43
2022-08-09T16:40:51.672Z,55.78
2022-08-09T16:43:18.356Z,55.55
2022-08-09T16:45:47.405Z,55.06
2022-08-09T16:48:41.895Z,55.35
2022-08-09T16:51:07.559Z,55.15
2022-08-09T16:53:36.056Z,55.02
2022-08-09T16:56:09.129Z,54.89
2022-08-09T16:58:39.877Z,54.84
2022-08-09T17:01:09.742Z,55.06
2022-08-09T17:03:37.219Z,54.94
2022-08-09T17:06:28.223Z,54.85
2022-08-09T17:08:58.965Z,54.68
2022-08-09T17:11:40.757Z,54.70
2022-08-09T17:14:25.404Z,54.91
2022-08-09T17:16:53.423Z,54.56
2022-08-09T17:19:21.017Z,54.39
2022-08-09T17:21:54.476Z,54.77
2022-08-09T17:24:30.252Z,54.41
2022-08-09T17:26:58.273Z,54.41
2022-08-09T17:29:31.593Z,54.72
2022-08-09T17:32:00.120Z,54.30
2022-08-09T17:35:07.369Z,54.46
2022-08-09T17:37:19.365Z,54.44
2022-08-09T17:39:53.126Z,54.31
2022-08-09T17:42:55.197Z,54.58
2022-08-09T17:45:16.106Z,54.81
2022-08-09T17:47:54.865Z,54.61
2022-08-09T17:50:25.114Z,54.77
2022-08-09T17:53:04.774Z,54.62
2022-08-09T17:55:49.335Z,55.07
2022-08-09T17:58:18.893Z,54.72
2022-08-09T18:00:48.129Z,54.78
2022-08-09T18:03:15.020Z,55.06
2022-08-09T18:05:44.509Z,54.79
2022-08-09T18:08:11.139Z,54.59
2022-08-09T18:10:46.014Z,54.69
2022-08-09T18:13:43.432Z,54.78
2022-08-09T18:16:09.064Z,54.74
2022-08-09T18:18:43.144Z,54.59
2022-08-09T18:21:23.732Z,54.83
2022-08-09T18:24:09.886Z,54.86
2022-08-09T18:26:38.126Z,54.59
2022-08-09T18:30:41.573Z,54.76
2022-08-09T18:31:55.738Z,54.64
2022-08-09T18:34:24.098Z,54.96
2022-08-09T18:36:53.377Z,54.80
2022-08-09T18:39:22.184Z,54.96
2022-08-09T18:41:53.151Z,54.97
2022-08-09T18:44:22.922Z,54.74
2022-08-09T18:47:04.813Z,55.10
2022-08-09T18:49:46.280Z,54.85
2022-08-09T18:52:16.144Z,55.02
2022-08-09T18:54:49.808Z,55.38
2022-08-09T18:57:19.956Z,55.37
2022-08-09T18:59:54.324Z,55.40
2022-08-09T19:02:31.747Z,55.12
2022-08-09T19:05:04.031Z,55.19
2022-08-09T19:07:43.295Z,55.45
2022-08-09T19:10:28.878Z,55.46
2022-08-09T19:13:22.502Z,55.84
2022-08-09T19:15:56.871Z,55.73
2022-08-09T19:18:33.384Z,55.58
2022-08-09T19:21:09.732Z,55.66
2022-08-09T19:24:32.989Z,56.00
2022-08-09T19:26:31.775Z,56.06
2022-08-09T19:29:01.909Z,55.95
2022-08-09T19:31:30.282Z,56.26
2022-08-09T19:33:57.831Z,55.96
2022-08-09T19:36:30.813Z,56.20
2022-08-09T19:39:03.560Z,56.38
2022-08-09T19:41:35.219Z,56.42
2022-08-09T19:44:03.455Z,56.05
2022-08-09T19:46:35.875Z,56.49
2022-08-09T19:50:05.318Z,56.26
2022-08-09T19:52:04.220Z,56.51
2022-08-09T19:54:30.725Z,56.30
2022-08-09T19:57:00.664Z,56.71
2022-08-09T19:59:57.162Z,56.80
2022-08-09T20:04:12.176Z,56.39
2022-08-09T20:05:10.183Z,56.83
2022-08-09T20:07:59.001Z,56.85
2022-08-09T20:10:36.194Z,56.59
2022-08-09T20:13:05.656Z,56.85
2022-08-09T20:16:33.354Z,56.92
2022-08-09T20:18:20.070Z,56.63
2022-08-09T20:20:55.427Z,56.52
2022-08-09T20:23:23.149Z,56.48
2022-08-09T20:25:52.524Z,56.86
2022-08-09T20:28:27.986Z,56.66
2022-08-09T20:31:02.595Z,56.96
2022-08-09T20:33:29.412Z,57.10
2022-08-09T20:36:07.609Z,56.94
2022-08-09T20:38:52.739Z,56.67
2022-08-09T20:41:20.420Z,56.76
2022-08-09T20:43:58.981Z,56.81
2022-08-09T20:46:41.914Z,56.83
2022-08-09T20:49:16.048Z,56.49
2022-08-09T20:51:43.949Z,56.78
2022-08-09T20:54:16.742Z,56.75
2022-08-09T20:56:47.277Z,56.96
2022-08-09T20:59:50.394Z,56.68
2022-08-09T21:02:07.988Z,57.03
2022-08-09T21:05:57.206Z,56.71
2022-08-09T21:07:21.126Z,56.61
2022-08-09T21:09:58.534Z,56.76
2022-08-09T21:15:16.669Z,56.59
2022-08-09T21:18:11.943Z,56.77
2022-08-09T21:20:32.957Z,56.84
2022-08-09T21:23:02.377Z,56.61
2022-08-09T21:25:55.385Z,56.44
2022-08-09T21:28:33.535Z,56.72
2022-08-09T21:31:16.597Z,56.49
2022-08-09T21:33:51.082Z,56.51
2022-08-09T21:36:20.219Z,56.35
2022-08-09T21:38:51.031Z,56.33
2022-08-09T21:42:05.527Z,56.44
2022-08-09T21:44:32.436Z,56.38
2022-08-09T21:47:01.949Z,55.88
2022-08-09T21:49:28.320Z,55.69
2022-08-09T21:51:54.678Z,55.86
2022-08-09T21:54:21.188Z,56.09
2022-08-09T21:56:54.532Z,56.40
2022-08-09T21:59:23.502Z,56.03
2022-08-09T22:02:00.878Z,56.13
2022-08-09T22:04:33.561Z,55.96
2022-08-09T22:07:14.458Z,55.85
2022-08-09T22:10:00.790Z,55.95
2022-08-09T22:12:30.855Z,55.79
2022-08-09T22:14:58.416Z,56.13
2022-08-09T22:17:24.907Z,55.93
2022-08-09T22:19:58.589Z,55.69
2022-08-09T22:22:28.309Z,55.70
2022-08-09T22:26:06.547Z,55.49
2022-08-09T22:27:42.159Z,55.38
2022-08-09T22:30:09.292Z,55.65
2022-08-09T22:32:35.694Z,55.76
2022-08-09T22:35:06.869Z,55.52
2022-08-09T22:38:06.607Z,55.81
2022-08-09T22:40:35.053Z,55.53
2022-08-09T22:43:16.007Z,55.41
2022-08-09T22:48:14.810Z,54.49
2022-08-09T22:48:36.234Z,54.79
2022-08-09T22:51:10.892Z,55.48
2022-08-09T22:54:02.879Z,55.59
2022-08-09T22:56:34.098Z,55.30
2022-08-09T22:59:05.725Z,55.68
2022-08-09T23:01:48.637Z,55.47
2022-08-09T23:04:15.041Z,55.63
2022-08-09T23:07:01.184Z,55.21
2022-08-09T23:09:27.793Z,55.57
2022-08-09T23:11:54.243Z,55.45
2022-08-09T23:14:37.563Z,55.48
2022-08-09T23:17:06.929Z,55.43
2022-08-09T23:20:07.442Z,55.29
2022-08-09T23:22:19.679Z,55.35
2022-08-09T23:24:48.627Z,55.07
2022-08-09T23:27:15.316Z,55.18
2022-08-09T23:29:41.849Z,55.49
2022-08-09T23:32:08.579Z,55.47
2022-08-09T23:34:34.931Z,55.32
2022-08-09T23:37:01.271Z,55.21
2022-08-09T23:39:27.903Z,55.02
2022-08-09T23:41:54.299Z,55.48
2022-08-09T23:44:20.680Z,55.11
2022-08-09T23:46:48.682Z,55.31
2022-08-09T23:49:24.538Z,55.24
2022-08-09T23:51:51.946Z,55.11
2022-08-09T23:54:18.331Z,55.06
2022-08-09T23:56:54.203Z,55.03
2022-08-09T23:59:22.448Z,54.97
